createdAt,value
2022-12-03T00:00:13.160Z,101293.43
2022-12-03T00:01:11.066Z,101288.92
2022-12-03T00:02:11.165Z,101288.36
2022-12-03T00:03:11.159Z,101283.02
2022-12-03T00:04:11.178Z,101283.17
2022-12-03T00:05:11.064Z,101280.25
2022-12-03T00:06:11.061Z,101280.14
2022-12-03T00:07:11.071Z,101282.42
2022-12-03T00:08:11.151Z,101278.13
2022-12-03T00:09:11.060Z,101277.54
2022-12-03T00:10:11.067Z,101279.28
2022-12-03T00:11:11.062Z,101284.48
2022-12-03T00:12:11.063Z,101281.59
2022-12-03T00:13:11.067Z,101282.71
2022-12-03T00:14:11.064Z,101279.05
2022-12-03T00:15:11.057Z,101278.18
2022-12-03T00:16:11.104Z,101277.36
2022-12-03T00:17:11.069Z,101280.18
2022-12-03T00:18:11.057Z,101279.16
2022-12-03T00:19:11.064Z,101279.17
2022-12-03T00:20:11.063Z,101277.78
2022-12-03T00:21:11.061Z,101274.93
2022-12-03T00:22:12.831Z,101279.20
2022-12-03T00:23:11.062Z,101274.27
2022-12-03T00:24:11.063Z,101274.46
2022-12-03T00:25:11.062Z,101270.67
2022-12-03T00:26:11.065Z,101274.85
2022-12-03T00:27:11.060Z,101275.35
2022-12-03T00:28:11.062Z,101272.05
2022-12-03T00:29:11.063Z,101274.92
2022-12-03T00:30:11.062Z,101273.58
2022-12-03T00:31:11.104Z,101274.50
2022-12-03T00:32:11.064Z,101275.64
2022-12-03T00:33:11.066Z,101276.77
2022-12-03T00:34:11.061Z,101274.75
2022-12-03T00:35:11.064Z,101275.14
2022-12-03T00:36:11.066Z,101269.29
2022-12-03T00:37:11.062Z,101270.16
2022-12-03T00:38:11.071Z,101265.46
2022-12-03T00:39:11.060Z,101267.00
2022-12-03T00:40:11.061Z,101269.88
2022-12-03T00:41:11.070Z,101268.88
2022-12-03T00:42:11.061Z,101268.90
2022-12-03T00:43:11.065Z,101267.42
2022-12-03T00:44:11.083Z,101267.54
2022-12-03T00:45:11.060Z,101264.99
2022-12-03T00:46:11.102Z,101261.64
2022-12-03T00:47:11.154Z,101256.38
2022-12-03T00:48:11.063Z,101260.15
2022-12-03T00:49:11.062Z,101260.10
2022-12-03T00:50:11.073Z,101256.08
2022-12-03T00:51:11.060Z,101258.89
2022-12-03T00:52:11.063Z,101254.57
2022-12-03T00:53:11.072Z,101257.76
2022-12-03T00:54:11.061Z,101255.76
2022-12-03T00:55:11.065Z,101253.55
2022-12-03T00:56:11.070Z,101256.46
2022-12-03T00:57:11.064Z,101254.82
2022-12-03T00:58:12.071Z,101251.43
2022-12-03T00:59:11.070Z,101249.49
2022-12-03T01:00:11.064Z,101249.10
2022-12-03T01:01:11.061Z,101246.43
2022-12-03T01:02:11.139Z,101247.06
2022-12-03T01:03:11.069Z,101247.54
2022-12-03T01:04:11.155Z,101246.21
2022-12-03T01:05:11.128Z,101250.25
2022-12-03T01:06:11.068Z,101249.11
2022-12-03T01:07:11.064Z,101244.59
2022-12-03T01:08:11.121Z,101250.09
2022-12-03T01:09:11.065Z,101246.51
2022-12-03T01:10:11.063Z,101245.41
2022-12-03T01:11:15.062Z,101247.49
2022-12-03T01:12:11.068Z,101248.67
2022-12-03T01:13:11.066Z,101246.14
2022-12-03T01:14:12.065Z,101244.34
2022-12-03T01:15:11.073Z,101244.34
2022-12-03T01:16:11.089Z,101244.83
2022-12-03T01:17:11.062Z,101249.35
2022-12-03T01:18:11.065Z,101245.65
2022-12-03T01:19:11.070Z,101241.57
2022-12-03T01:20:11.062Z,101243.81
2022-12-03T01:21:11.066Z,101244.19
2022-12-03T01:22:11.071Z,101240.55
2022-12-03T01:23:11.062Z,101240.29
2022-12-03T01:24:11.067Z,101241.28
2022-12-03T01:25:11.072Z,101245.21
2022-12-03T01:26:11.068Z,101242.52
2022-12-03T01:27:11.068Z,101237.16
2022-12-03T01:28:11.078Z,101236.58
2022-12-03T01:29:11.068Z,101231.64
2022-12-03T01:30:11.062Z,101237.49
2022-12-03T01:31:15.164Z,101234.50
2022-12-03T01:32:15.066Z,101238.69
2022-12-03T01:33:11.065Z,101238.74
2022-12-03T01:34:11.065Z,101237.22
2022-12-03T01:35:11.069Z,101236.72
2022-12-03T01:36:11.062Z,101237.72
2022-12-03T01:37:11.066Z,101238.46
2022-12-03T01:38:11.073Z,101241.55
2022-12-03T01:39:11.064Z,101242.30
2022-12-03T01:40:12.067Z,101238.62
2022-12-03T01:41:12.034Z,101241.39
2022-12-03T01:42:15.063Z,101241.49
2022-12-03T01:43:11.069Z,101238.47
2022-12-03T01:44:19.068Z,101236.60
2022-12-03T01:45:19.065Z,101238.86
2022-12-03T01:46:13.166Z,101241.15
2022-12-03T01:47:17.065Z,101245.50
2022-12-03T01:48:13.074Z,101246.99
2022-12-03T01:49:19.086Z,101246.60
2022-12-03T01:50:17.063Z,101245.31
2022-12-03T01:51:11.066Z,101247.15
2022-12-03T01:52:15.068Z,101245.61
2022-12-03T01:53:11.066Z,101245.61
2022-12-03T01:54:19.067Z,101245.56
2022-12-03T01:55:16.072Z,101242.89
2022-12-03T01:56:14.068Z,101245.94
2022-12-03T01:57:19.069Z,101250.34
2022-12-03T01:58:12.063Z,101250.12
2022-12-03T01:59:13.069Z,101248.62
2022-12-03T02:00:14.069Z,101245.91
2022-12-03T02:01:14.252Z,101246.40
2022-12-03T02:02:18.118Z,101251.27
2022-12-03T02:03:17.081Z,101249.59
2022-12-03T02:04:15.218Z,101249.78
2022-12-03T02:05:21.069Z,101249.76
2022-12-03T02:06:16.067Z,101250.36
2022-12-03T02:07:17.075Z,101246.87
2022-12-03T02:08:19.069Z,101250.18
2022-12-03T02:09:14.066Z,101247.98
2022-12-03T02:10:11.072Z,101244.60
2022-12-03T02:11:19.076Z,101254.03
2022-12-03T02:12:11.051Z,101251.05
2022-12-03T02:13:11.051Z,101250.32
2022-12-03T02:14:14.051Z,101247.68
2022-12-03T02:15:11.049Z,101245.77
2022-12-03T02:16:11.086Z,101249.38
2022-12-03T02:17:11.048Z,101254.56
2022-12-03T02:18:11.057Z,101255.44
2022-12-03T02:19:19.049Z,101243.81
2022-12-03T02:20:11.048Z,101245.99
2022-12-03T02:21:21.056Z,101241.61
2022-12-03T02:22:19.065Z,101243.36
2022-12-03T02:23:19.053Z,101243.77
2022-12-03T02:24:19.050Z,101244.10
2022-12-03T02:25:15.052Z,101244.85
2022-12-03T02:26:11.054Z,101242.49
2022-12-03T02:27:11.055Z,101244.88
2022-12-03T02:28:11.051Z,101239.64
2022-12-03T02:29:11.051Z,101242.03
2022-12-03T02:30:12.050Z,101242.98
2022-12-03T02:31:11.119Z,101245.08
2022-12-03T02:32:11.048Z,101245.18
2022-12-03T02:33:11.051Z,101243.05
2022-12-03T02:34:11.047Z,101246.40
2022-12-03T02:35:17.049Z,101242.03
2022-12-03T02:36:11.059Z,101243.55
2022-12-03T02:37:15.049Z,101242.83
2022-12-03T02:38:19.052Z,101244.69
2022-12-03T02:39:11.050Z,101240.18
2022-12-03T02:40:13.053Z,101240.82
2022-12-03T02:41:13.049Z,101241.91
2022-12-03T02:42:15.051Z,101237.82
2022-12-03T02:43:11.058Z,101238.09
2022-12-03T02:44:11.050Z,101235.61
2022-12-03T02:45:18.049Z,101239.70
2022-12-03T02:46:11.165Z,101238.16
2022-12-03T02:47:11.131Z,101238.72
2022-12-03T02:48:16.047Z,101236.76
2022-12-03T02:49:11.050Z,101236.05
2022-12-03T02:50:11.065Z,101231.94
2022-12-03T02:51:11.065Z,101232.04
2022-12-03T02:52:11.050Z,101228.25
2022-12-03T02:53:17.055Z,101228.03
2022-12-03T02:54:11.052Z,101228.32
2022-12-03T02:55:11.048Z,101225.91
2022-12-03T02:56:15.059Z,101223.20
2022-12-03T02:57:11.051Z,101225.62
2022-12-03T02:58:11.050Z,101221.12
2022-12-03T02:59:11.052Z,101222.49
2022-12-03T03:00:11.052Z,101221.55
2022-12-03T03:01:11.203Z,101218.68
2022-12-03T03:02:11.143Z,101222.09
2022-12-03T03:03:11.054Z,101216.68
2022-12-03T03:04:11.054Z,101218.71
2022-12-03T03:05:11.053Z,101213.37
2022-12-03T03:06:11.051Z,101214.02
2022-12-03T03:07:11.052Z,101219.29
2022-12-03T03:08:11.165Z,101222.20
2022-12-03T03:09:11.053Z,101225.28
2022-12-03T03:10:12.052Z,101231.69
2022-12-03T03:11:11.052Z,101230.61
2022-12-03T03:12:11.054Z,101234.14
2022-12-03T03:13:15.050Z,101229.54
2022-12-03T03:14:11.052Z,101230.02
2022-12-03T03:15:11.059Z,101229.30
2022-12-03T03:16:11.120Z,101229.01
2022-12-03T03:17:11.049Z,101227.71
2022-12-03T03:18:11.054Z,101229.50
2022-12-03T03:19:11.052Z,101231.33
2022-12-03T03:20:11.054Z,101228.28
2022-12-03T03:21:11.059Z,101223.47
2022-12-03T03:22:11.052Z,101222.58
2022-12-03T03:23:17.049Z,101218.41
2022-12-03T03:24:11.051Z,101221.75
2022-12-03T03:25:15.056Z,101215.52
2022-12-03T03:26:12.050Z,101222.14
2022-12-03T03:27:11.057Z,101224.20
2022-12-03T03:28:11.060Z,101220.34
2022-12-03T03:29:11.054Z,101223.59
2022-12-03T03:30:11.058Z,101223.48
2022-12-03T03:31:11.124Z,101223.48
2022-12-03T03:32:11.158Z,101220.66
2022-12-03T03:33:11.050Z,101220.25
2022-12-03T03:34:11.056Z,101227.43
2022-12-03T03:35:11.054Z,101223.57
2022-12-03T03:36:11.053Z,101223.43
2022-12-03T03:37:11.053Z,101224.09
2022-12-03T03:38:11.054Z,101220.66
2022-12-03T03:39:11.053Z,101221.29
2022-12-03T03:40:11.053Z,101219.46
2022-12-03T03:41:11.053Z,101218.91
2022-12-03T03:42:11.053Z,101219.82
2022-12-03T03:43:11.054Z,101224.33
2022-12-03T03:44:11.054Z,101221.02
2022-12-03T03:45:11.054Z,101217.07
2022-12-03T03:46:11.117Z,101221.44
2022-12-03T03:47:11.055Z,101218.62
2022-12-03T03:48:11.057Z,101217.65
2022-12-03T03:49:11.054Z,101218.92
2022-12-03T03:50:11.056Z,101214.17
2022-12-03T03:51:13.054Z,101214.59
2022-12-03T03:52:11.053Z,101216.91
2022-12-03T03:53:11.062Z,101218.21
2022-12-03T03:54:11.054Z,101214.65
2022-12-03T03:55:12.054Z,101212.89
2022-12-03T03:56:11.064Z,101212.03
2022-12-03T03:57:11.057Z,101214.43
2022-12-03T03:58:11.051Z,101212.81
2022-12-03T03:59:11.057Z,101220.03
2022-12-03T04:00:11.055Z,101212.16
2022-12-03T04:01:11.116Z,101216.05
2022-12-03T04:02:17.063Z,101212.63
2022-12-03T04:03:11.059Z,101211.92
2022-12-03T04:04:18.159Z,101212.96
2022-12-03T04:05:17.058Z,101214.07
2022-12-03T04:06:11.064Z,101215.20
2022-12-03T04:07:11.056Z,101214.43
2022-12-03T04:08:11.145Z,101212.06
2022-12-03T04:09:11.057Z,101212.95
2022-12-03T04:10:15.061Z,101210.04
2022-12-03T04:11:15.057Z,101207.70
2022-12-03T04:12:15.055Z,101210.21
2022-12-03T04:13:11.063Z,101207.66
2022-12-03T04:14:11.057Z,101201.30
2022-12-03T04:15:11.052Z,101201.05
2022-12-03T04:16:11.101Z,101201.59
2022-12-03T04:17:11.058Z,101200.43
2022-12-03T04:18:15.052Z,101199.23
2022-12-03T04:19:11.056Z,101198.66
2022-12-03T04:20:11.057Z,101197.10
2022-12-03T04:21:18.070Z,101197.53
2022-12-03T04:22:15.060Z,101196.10
2022-12-03T04:23:11.055Z,101196.13
2022-12-03T04:24:11.058Z,101193.53
2022-12-03T04:25:15.053Z,101192.21
2022-12-03T04:26:15.056Z,101197.24
2022-12-03T04:27:15.065Z,101193.46
2022-12-03T04:28:15.058Z,101194.18
2022-12-03T04:29:11.056Z,101195.32
2022-12-03T04:30:11.060Z,101197.07
2022-12-03T04:31:15.112Z,101195.21
2022-12-03T04:32:15.056Z,101192.57
2022-12-03T04:33:15.060Z,101191.25
2022-12-03T04:34:15.059Z,101193.56
2022-12-03T04:35:15.102Z,101196.07
2022-12-03T04:36:11.056Z,101193.45
2022-12-03T04:37:11.061Z,101189.66
2022-12-03T04:38:11.065Z,101190.80
2022-12-03T04:39:11.059Z,101186.68
2022-12-03T04:40:15.059Z,101191.41
2022-12-03T04:41:11.061Z,101188.70
2022-12-03T04:42:11.057Z,101189.55
2022-12-03T04:43:11.056Z,101186.72
2022-12-03T04:44:15.063Z,101183.16
2022-12-03T04:45:11.060Z,101191.17
2022-12-03T04:46:11.159Z,101187.44
2022-12-03T04:47:14.060Z,101192.29
2022-12-03T04:48:11.065Z,101189.43
2022-12-03T04:49:11.056Z,101188.77
2022-12-03T04:50:11.060Z,101191.49
2022-12-03T04:51:11.065Z,101192.19
2022-12-03T04:52:11.056Z,101188.63
2022-12-03T04:53:11.060Z,101190.93
2022-12-03T04:54:11.074Z,101187.21
2022-12-03T04:55:11.058Z,101182.93
2022-12-03T04:56:11.055Z,101187.82
2022-12-03T04:57:11.064Z,101182.61
2022-12-03T04:58:11.064Z,101170.09
2022-12-03T04:59:16.303Z,101169.05
2022-12-03T05:00:11.058Z,101170.55
2022-12-03T05:01:11.077Z,101172.43
2022-12-03T05:02:11.096Z,101174.50
2022-12-03T05:03:11.058Z,101179.70
2022-12-03T05:04:11.066Z,101176.36
2022-12-03T05:05:11.058Z,101179.57
2022-12-03T05:06:11.058Z,101178.54
2022-12-03T05:07:11.066Z,101183.64
2022-12-03T05:08:11.127Z,101185.24
2022-12-03T05:09:11.060Z,101179.36
2022-12-03T05:10:11.067Z,101181.46
2022-12-03T05:11:11.058Z,101181.20
2022-12-03T05:12:11.059Z,101179.33
2022-12-03T05:13:11.066Z,101175.42
2022-12-03T05:14:11.057Z,101178.47
2022-12-03T05:15:11.060Z,101167.52
2022-12-03T05:16:11.128Z,101172.61
2022-12-03T05:17:11.132Z,101170.43
2022-12-03T05:18:11.052Z,101166.03
2022-12-03T05:19:11.064Z,101175.02
2022-12-03T05:20:15.054Z,101175.69
2022-12-03T05:21:11.052Z,101175.60
2022-12-03T05:22:11.058Z,101175.42
2022-12-03T05:23:11.058Z,101173.88
2022-12-03T05:24:11.052Z,101186.09
2022-12-03T05:25:11.055Z,101175.15
2022-12-03T05:26:11.057Z,101176.63
2022-12-03T05:27:11.057Z,101173.78
2022-12-03T05:28:11.056Z,101177.12
2022-12-03T05:29:11.057Z,101178.94
2022-12-03T05:30:11.055Z,101179.72
2022-12-03T05:31:11.198Z,101178.51
2022-12-03T05:32:11.063Z,101177.33
2022-12-03T05:33:11.056Z,101180.32
2022-12-03T05:34:11.056Z,101184.60
2022-12-03T05:35:11.062Z,101180.57
2022-12-03T05:36:11.058Z,101179.14
2022-12-03T05:37:11.061Z,101179.47
2022-12-03T05:38:11.059Z,101175.74
2022-12-03T05:39:11.055Z,101175.74
2022-12-03T05:40:11.059Z,101176.75
2022-12-03T05:41:15.067Z,101174.80
2022-12-03T05:42:15.057Z,101171.61
2022-12-03T05:43:11.056Z,101173.27
2022-12-03T05:44:12.443Z,101165.54
2022-12-03T05:45:11.065Z,101169.25
2022-12-03T05:46:11.107Z,101161.87
2022-12-03T05:47:11.060Z,101161.89
2022-12-03T05:48:11.064Z,101158.89
2022-12-03T05:49:11.059Z,101160.19
2022-12-03T05:50:11.063Z,101162.26
2022-12-03T05:51:11.067Z,101158.78
2022-12-03T05:52:11.094Z,101154.81
2022-12-03T05:53:11.056Z,101153.22
2022-12-03T05:54:11.063Z,101151.94
2022-12-03T05:55:11.058Z,101152.95
2022-12-03T05:56:11.059Z,101152.39
2022-12-03T05:57:11.057Z,101148.21
2022-12-03T05:58:11.061Z,101145.63
2022-12-03T05:59:11.060Z,101149.41
2022-12-03T06:00:20.061Z,101146.56
2022-12-03T06:01:11.066Z,101142.97
2022-12-03T06:02:11.113Z,101148.50
2022-12-03T06:03:11.251Z,101147.83
2022-12-03T06:04:11.068Z,101147.21
2022-12-03T06:05:11.068Z,101146.83
2022-12-03T06:06:11.056Z,101143.02
2022-12-03T06:07:14.181Z,101135.98
2022-12-03T06:08:11.113Z,101137.39
2022-12-03T06:09:11.059Z,101134.81
2022-12-03T06:10:11.075Z,101135.05
2022-12-03T06:11:11.060Z,101135.49
2022-12-03T06:12:11.056Z,101124.02
2022-12-03T06:13:11.065Z,101132.66
2022-12-03T06:14:11.061Z,101130.71
2022-12-03T06:15:11.057Z,101128.64
2022-12-03T06:16:11.094Z,101130.34
2022-12-03T06:17:11.061Z,101126.60
2022-12-03T06:18:11.060Z,101125.11
2022-12-03T06:19:11.062Z,101120.47
2022-12-03T06:20:15.060Z,101121.57
2022-12-03T06:21:11.059Z,101123.39
2022-12-03T06:22:11.060Z,101118.65
2022-12-03T06:23:11.068Z,101123.09
2022-12-03T06:24:11.059Z,101127.18
2022-12-03T06:25:11.063Z,101122.68
2022-12-03T06:26:11.069Z,101118.15
2022-12-03T06:27:11.058Z,101122.04
2022-12-03T06:28:11.063Z,101123.04
2022-12-03T06:29:11.069Z,101120.18
2022-12-03T06:30:11.059Z,101119.12
2022-12-03T06:31:11.138Z,101116.72
2022-12-03T06:32:11.068Z,101118.75
2022-12-03T06:33:11.062Z,101120.06
2022-12-03T06:34:11.065Z,101118.46
2022-12-03T06:35:11.067Z,101120.97
2022-12-03T06:36:11.062Z,101118.41
2022-12-03T06:37:11.056Z,101121.09
2022-12-03T06:38:11.062Z,101119.09
2022-12-03T06:39:11.061Z,101121.48
2022-12-03T06:40:11.063Z,101118.36
2022-12-03T06:41:11.064Z,101120.10
2022-12-03T06:42:11.064Z,101112.07
2022-12-03T06:43:11.060Z,101116.34
2022-12-03T06:44:11.062Z,101115.43
2022-12-03T06:45:11.066Z,101108.19
2022-12-03T06:46:11.141Z,101106.75
2022-12-03T06:47:11.061Z,101106.80
2022-12-03T06:48:11.063Z,101111.02
2022-12-03T06:49:11.062Z,101114.91
2022-12-03T06:50:11.060Z,101116.70
2022-12-03T06:51:11.063Z,101118.21
2022-12-03T06:52:11.059Z,101124.62
2022-12-03T06:53:11.061Z,101124.94
2022-12-03T06:54:11.074Z,101115.61
2022-12-03T06:55:11.064Z,101119.35
2022-12-03T06:56:11.067Z,101119.71
2022-12-03T06:57:11.069Z,101121.80
2022-12-03T06:58:11.061Z,101115.10
2022-12-03T06:59:11.063Z,101122.27
2022-12-03T07:00:11.070Z,101122.36
2022-12-03T07:01:11.107Z,101124.47
2022-12-03T07:02:11.124Z,101124.10
2022-12-03T07:03:11.163Z,101123.86
2022-12-03T07:04:11.060Z,101124.29
2022-12-03T07:05:11.060Z,101124.04
2022-12-03T07:06:11.073Z,101121.44
2022-12-03T07:07:11.065Z,101124.10
2022-12-03T07:08:11.124Z,101119.07
2022-12-03T07:09:11.064Z,101122.52
2022-12-03T07:10:11.063Z,101116.87
2022-12-03T07:11:15.059Z,101118.98
2022-12-03T07:12:11.065Z,101118.83
2022-12-03T07:13:11.064Z,101114.82
2022-12-03T07:14:11.115Z,101120.26
2022-12-03T07:15:11.064Z,101112.45
2022-12-03T07:16:11.112Z,101109.86
2022-12-03T07:17:11.062Z,101111.85
2022-12-03T07:18:11.067Z,101113.08
2022-12-03T07:19:11.072Z,101112.39
2022-12-03T07:20:11.064Z,101118.51
2022-12-03T07:21:11.060Z,101111.39
2022-12-03T07:22:11.066Z,101115.99
2022-12-03T07:23:11.063Z,101116.25
2022-12-03T07:24:11.064Z,101113.88
2022-12-03T07:25:11.065Z,101114.21
2022-12-03T07:26:11.064Z,101113.15
2022-12-03T07:27:11.062Z,101107.77
2022-12-03T07:28:11.062Z,101109.12
2022-12-03T07:29:11.068Z,101107.11
2022-12-03T07:30:11.060Z,101105.89
2022-12-03T07:31:11.096Z,101107.81
2022-12-03T07:32:11.073Z,101111.81
2022-12-03T07:33:11.064Z,101107.34
2022-12-03T07:34:11.064Z,101106.08
2022-12-03T07:35:11.072Z,101105.88
2022-12-03T07:36:11.067Z,101106.50
2022-12-03T07:37:11.067Z,101106.97
2022-12-03T07:38:11.072Z,101107.65
2022-12-03T07:39:11.063Z,101102.16
2022-12-03T07:40:11.067Z,101104.65
2022-12-03T07:41:11.073Z,101099.94
2022-12-03T07:42:11.063Z,101106.79
2022-12-03T07:43:11.067Z,101097.27
2022-12-03T07:44:14.595Z,101090.40
2022-12-03T07:45:11.066Z,101094.30
2022-12-03T07:46:11.125Z,101093.09
2022-12-03T07:47:11.156Z,101093.39
2022-12-03T07:48:11.066Z,101094.02
2022-12-03T07:49:11.062Z,101089.81
2022-12-03T07:50:11.074Z,101087.89
2022-12-03T07:51:15.309Z,101085.57
2022-12-03T07:52:11.061Z,101091.35
2022-12-03T07:53:11.068Z,101086.09
2022-12-03T07:54:11.065Z,101086.38
2022-12-03T07:55:11.066Z,101088.81
2022-12-03T07:56:11.070Z,101094.72
2022-12-03T07:57:11.066Z,101094.27
2022-12-03T07:58:11.069Z,101091.07
2022-12-03T07:59:11.066Z,101088.17
2022-12-03T08:00:11.068Z,101094.24
2022-12-03T08:01:11.154Z,101093.15
2022-12-03T08:02:11.189Z,101093.27
2022-12-03T08:03:11.066Z,101093.14
2022-12-03T08:04:11.065Z,101091.46
2022-12-03T08:05:11.072Z,101093.18
2022-12-03T08:06:11.068Z,101092.84
2022-12-03T08:07:11.066Z,101090.89
2022-12-03T08:08:11.119Z,101093.24
2022-12-03T08:09:15.750Z,101092.83
2022-12-03T08:10:13.087Z,101092.76
2022-12-03T08:11:13.069Z,101091.86
2022-12-03T08:12:19.066Z,101095.48
2022-12-03T08:13:14.057Z,101092.40
2022-12-03T08:14:14.057Z,101092.48
2022-12-03T08:15:21.056Z,101092.49
2022-12-03T08:16:18.189Z,101091.73
2022-12-03T08:17:13.061Z,101093.34
2022-12-03T08:18:16.056Z,101090.35
2022-12-03T08:19:13.057Z,101089.94
2022-12-03T08:20:16.068Z,101091.21
2022-12-03T08:21:14.056Z,101094.39
2022-12-03T08:22:15.057Z,101093.43
2022-12-03T08:23:18.066Z,101090.38
2022-12-03T08:24:15.059Z,101085.17
2022-12-03T08:25:15.080Z,101083.08
2022-12-03T08:26:21.061Z,101086.32
2022-12-03T08:27:16.056Z,101075.15
2022-12-03T08:28:18.061Z,101076.64
2022-12-03T08:29:15.059Z,101081.15
2022-12-03T08:30:13.059Z,101076.40
2022-12-03T08:31:18.109Z,101075.82
2022-12-03T08:32:12.126Z,101080.54
2022-12-03T08:33:19.056Z,101074.33
2022-12-03T08:34:20.064Z,101074.54
2022-12-03T08:35:19.057Z,101073.67
2022-12-03T08:36:21.070Z,101064.43
2022-12-03T08:37:16.058Z,101068.75
2022-12-03T08:38:12.058Z,101066.93
2022-12-03T08:39:19.057Z,101066.03
2022-12-03T08:40:19.071Z,101066.39
2022-12-03T08:41:16.059Z,101067.18
2022-12-03T08:42:21.077Z,101065.39
2022-12-03T08:43:19.060Z,101066.82
2022-12-03T08:44:19.071Z,101067.23
2022-12-03T08:45:19.065Z,101065.47
2022-12-03T08:46:17.160Z,101067.35
2022-12-03T08:47:19.057Z,101064.78
2022-12-03T08:48:19.062Z,101064.96
2022-12-03T08:49:11.058Z,101060.62
2022-12-03T08:50:19.060Z,101059.91
2022-12-03T08:51:19.058Z,101064.13
2022-12-03T08:52:19.062Z,101061.80
2022-12-03T08:53:23.060Z,101055.55
2022-12-03T08:54:17.067Z,101055.86
2022-12-03T08:55:21.063Z,101058.03
2022-12-03T08:56:20.057Z,101054.82
2022-12-03T08:57:19.061Z,101052.71
2022-12-03T08:58:19.062Z,101053.05
2022-12-03T08:59:19.061Z,101052.65
2022-12-03T09:00:19.057Z,101051.61
2022-12-03T09:01:18.131Z,101052.84
2022-12-03T09:02:18.059Z,101049.30
2022-12-03T09:03:15.067Z,101049.70
2022-12-03T09:04:19.095Z,101047.36
2022-12-03T09:05:19.056Z,101047.38
2022-12-03T09:06:11.060Z,101044.06
2022-12-03T09:07:11.071Z,101043.21
2022-12-03T09:08:11.112Z,101044.92
2022-12-03T09:09:11.063Z,101040.93
2022-12-03T09:10:11.074Z,101042.34
2022-12-03T09:11:11.057Z,101039.23
2022-12-03T09:12:11.061Z,101036.68
2022-12-03T09:13:11.073Z,101039.88
2022-12-03T09:14:16.710Z,101036.55
2022-12-03T09:15:13.069Z,101037.15
2022-12-03T09:16:11.081Z,101031.70
2022-12-03T09:17:11.145Z,101035.41
2022-12-03T09:18:11.058Z,101042.11
2022-12-03T09:19:11.063Z,101037.38
2022-12-03T09:20:11.062Z,101036.98
2022-12-03T09:21:11.057Z,101036.50
2022-12-03T09:22:11.063Z,101036.56
2022-12-03T09:23:11.066Z,101037.73
2022-12-03T09:24:11.058Z,101034.51
2022-12-03T09:25:11.064Z,101031.12
2022-12-03T09:26:11.062Z,101035.29
2022-12-03T09:27:11.061Z,101035.33
2022-12-03T09:28:11.062Z,101031.89
2022-12-03T09:29:12.572Z,101033.44
2022-12-03T09:30:11.064Z,101032.54
2022-12-03T09:31:11.085Z,101035.97
2022-12-03T09:32:16.635Z,101030.77
2022-12-03T09:33:13.047Z,101028.91
2022-12-03T09:34:11.062Z,101031.61
2022-12-03T09:35:11.068Z,101027.45
2022-12-03T09:36:11.060Z,101030.30
2022-12-03T09:37:11.064Z,101028.58
2022-12-03T09:38:11.070Z,101033.53
2022-12-03T09:39:11.065Z,101030.03
2022-12-03T09:40:11.058Z,101032.63
2022-12-03T09:41:11.066Z,101030.62
2022-12-03T09:42:11.062Z,101031.34
2022-12-03T09:43:11.058Z,101036.98
2022-12-03T09:44:17.556Z,101027.30
2022-12-03T09:45:14.228Z,101034.03
2022-12-03T09:46:11.101Z,101034.48
2022-12-03T09:47:11.061Z,101029.16
2022-12-03T09:48:11.102Z,101030.47
2022-12-03T09:49:15.723Z,101032.35
2022-12-03T09:50:18.061Z,101030.09
2022-12-03T09:51:11.064Z,101027.95
2022-12-03T09:52:11.062Z,101029.07
2022-12-03T09:53:16.065Z,101030.80
2022-12-03T09:54:16.065Z,101025.27
2022-12-03T09:55:16.064Z,101020.25
2022-12-03T09:56:15.065Z,101022.71
2022-12-03T09:57:11.064Z,101026.34
2022-12-03T09:58:15.071Z,101027.85
2022-12-03T09:59:15.065Z,101017.05
2022-12-03T10:00:20.062Z,101017.73
2022-12-03T10:01:14.169Z,101019.00
2022-12-03T10:02:21.071Z,101014.98
2022-12-03T10:03:15.069Z,101018.17
2022-12-03T10:04:11.114Z,101016.55
2022-12-03T10:05:11.146Z,101012.03
2022-12-03T10:06:13.073Z,101017.66
2022-12-03T10:07:11.064Z,101011.38
2022-12-03T10:08:11.147Z,101013.91
2022-12-03T10:09:11.071Z,101007.67
2022-12-03T10:10:15.066Z,101011.07
2022-12-03T10:11:11.063Z,101010.47
2022-12-03T10:12:12.063Z,101010.86
2022-12-03T10:13:19.836Z,101010.29
2022-12-03T10:14:15.231Z,101009.07
2022-12-03T10:15:13.066Z,101017.12
2022-12-03T10:16:11.165Z,101013.70
2022-12-03T10:17:12.109Z,101010.48
2022-12-03T10:18:19.065Z,101008.11
2022-12-03T10:19:19.067Z,101009.60
2022-12-03T10:20:12.072Z,101007.16
2022-12-03T10:21:22.062Z,101003.36
2022-12-03T10:22:11.065Z,101002.46
2022-12-03T10:23:15.067Z,101003.55
2022-12-03T10:24:21.084Z,101003.29
2022-12-03T10:25:14.065Z,100999.64
2022-12-03T10:26:11.066Z,101002.93
2022-12-03T10:27:19.072Z,100995.52
2022-12-03T10:28:11.066Z,100997.79
2022-12-03T10:29:26.822Z,100997.80
2022-12-03T10:30:20.087Z,101002.48
2022-12-03T10:31:13.178Z,100996.32
2022-12-03T10:32:11.073Z,100993.38
2022-12-03T10:33:15.868Z,100993.79
2022-12-03T10:34:13.047Z,100989.01
2022-12-03T10:35:17.075Z,100983.56
2022-12-03T10:36:18.070Z,100977.47
2022-12-03T10:37:11.062Z,100972.65
2022-12-03T10:38:21.065Z,100973.80
2022-12-03T10:39:12.067Z,100970.27
2022-12-03T10:40:14.066Z,100970.84
2022-12-03T10:41:19.061Z,100970.11
2022-12-03T10:42:16.074Z,100972.75
2022-12-03T10:43:19.088Z,100964.20
2022-12-03T10:44:23.067Z,100963.12
2022-12-03T10:45:18.101Z,100964.72
2022-12-03T10:46:16.220Z,100965.66
2022-12-03T10:47:13.152Z,100956.54
2022-12-03T10:48:19.068Z,100956.64
2022-12-03T10:49:15.063Z,100951.86
2022-12-03T10:50:16.065Z,100955.09
2022-12-03T10:51:18.074Z,100943.42
2022-12-03T10:52:25.298Z,100949.45
2022-12-03T10:53:13.071Z,100946.22
2022-12-03T10:54:19.072Z,100949.06
2022-12-03T10:55:14.074Z,100950.42
2022-12-03T10:56:19.069Z,100946.43
2022-12-03T10:57:11.064Z,100947.65
2022-12-03T10:58:19.068Z,100941.60
2022-12-03T10:59:14.068Z,100949.62
2022-12-03T11:00:16.069Z,100948.76
2022-12-03T11:01:19.130Z,100939.71
2022-12-03T11:02:19.069Z,100942.44
2022-12-03T11:03:19.098Z,100936.32
2022-12-03T11:04:19.069Z,100929.53
2022-12-03T11:05:18.064Z,100933.56
2022-12-03T11:06:17.066Z,100935.07
2022-12-03T11:07:15.071Z,100928.02
2022-12-03T11:08:19.173Z,100929.07
2022-12-03T11:09:18.066Z,100931.53
2022-12-03T11:10:17.272Z,100929.47
2022-12-03T11:11:18.066Z,100928.91
2022-12-03T11:12:18.066Z,100922.99
2022-12-03T11:13:19.059Z,100924.26
2022-12-03T11:14:11.054Z,100931.55
2022-12-03T11:15:15.059Z,100923.92
2022-12-03T11:16:11.145Z,100922.07
2022-12-03T11:17:11.053Z,100923.30
2022-12-03T11:18:11.060Z,100919.80
2022-12-03T11:19:21.090Z,100929.37
2022-12-03T11:20:22.605Z,100913.14
2022-12-03T11:21:14.072Z,100917.70
2022-12-03T11:22:19.060Z,100914.35
2022-12-03T11:23:12.057Z,100914.38
2022-12-03T11:24:16.073Z,100909.49